sensor_id;sensor_type;location;lat;lon;timestamp;pressure;altitude;pressure_sealevel;temperature;humidity
11878;BME280;5998;42.676;23.268;2022-08-27T00:00:40;94417.16;;;19.32;100.00
11878;BME280;5998;42.676;23.268;2022-08-27T00:03:07;94433.56;;;19.29;100.00
11878;BME280;5998;42.676;23.268;2022-08-27T00:05:34;94435.50;;;19.28;100.00
11878;BME280;5998;42.676;23.268;2022-08-27T00:08:02;94426.06;;;19.40;100.00
11878;BME280;5998;42.676;23.268;2022-08-27T00:10:31;94428.03;;;19.36;100.00
11878;BME280;5998;42.676;23.268;2022-08-27T00:12:58;94426.22;;;19.22;100.00
11878;BME280;5998;42.676;23.268;2022-08-27T00:15:25;94422.06;;;19.07;100.00
11878;BME280;5998;42.676;23.268;2022-08-27T00:17:52;94423.19;;;19.13;100.00
11878;BME280;5998;42.676;23.268;2022-08-27T00:20:21;94422.03;;;19.11;100.00
11878;BME280;5998;42.676;23.268;2022-08-27T00:22:49;94425.56;;;19.08;100.00
11878;BME280;5998;42.676;23.268;2022-08-27T00:25:16;94413.53;;;19.02;100.00
11878;BME280;5998;42.676;23.268;2022-08-27T00:27:44;94417.06;;;18.99;100.00
11878;BME280;5998;42.676;23.268;2022-08-27T00:30:14;94394.94;;;18.86;100.00
11878;BME280;5998;42.676;23.268;2022-08-27T00:32:41;94408.91;;;18.95;100.00
11878;BME280;5998;42.676;23.268;2022-08-27T00:35:08;94409.66;;;18.99;100.00
11878;BME280;5998;42.676;23.268;2022-08-27T00:37:36;94406.13;;;18.99;100.00
11878;BME280;5998;42.676;23.268;2022-08-27T00:40:04;94414.72;;;19.01;100.00
11878;BME280;5998;42.676;23.268;2022-08-27T00:42:31;94420.50;;;19.06;100.00
11878;BME280;5998;42.676;23.268;2022-08-27T00:44:59;94407.28;;;19.01;100.00
11878;BME280;5998;42.676;23.268;2022-08-27T00:47:28;94415.47;;;19.01;100.00
11878;BME280;5998;42.676;23.268;2022-08-27T00:50:01;94410.44;;;18.96;100.00
11878;BME280;5998;42.676;23.268;2022-08-27T00:52:30;94422.50;;;18.99;100.00
11878;BME280;5998;42.676;23.268;2022-08-27T00:55:02;94419.34;;;19.04;100.00
11878;BME280;5998;42.676;23.268;2022-08-27T00:57:30;94415.53;;;18.98;100.00
11878;BME280;5998;42.676;23.268;2022-08-27T00:59:58;94414.38;;;18.95;100.00
11878;BME280;5998;42.676;23.268;2022-08-27T01:02:25;94408.56;;;18.90;100.00
11878;BME280;5998;42.676;23.268;2022-08-27T01:04:58;94414.03;;;18.90;100.00
11878;BME280;5998;42.676;23.268;2022-08-27T01:07:29;94414.41;;;18.88;100.00
11878;BME280;5998;42.676;23.268;2022-08-27T01:09:58;94412.09;;;18.87;100.00
11878;BME280;5998;42.676;23.268;2022-08-27T01:12:26;94413.28;;;18.82;100.00
11878;BME280;5998;42.676;23.268;2022-08-27T01:14:55;94410.97;;;18.80;100.00
11878;BME280;5998;42.676;23.268;2022-08-27T01:17:24;94405.53;;;18.77;100.00
11878;BME280;5998;42.676;23.268;2022-08-27T01:19:54;94406.25;;;18.84;100.00
11878;BME280;5998;42.676;23.268;2022-08-27T01:22:29;94401.63;;;18.81;100.00
11878;BME280;5998;42.676;23.268;2022-08-27T01:25:00;94409.03;;;18.81;100.00
11878;BME280;5998;42.676;23.268;2022-08-27T01:27:30;94414.50;;;18.77;100.00
11878;BME280;5998;42.676;23.268;2022-08-27T01:29:57;94414.47;;;18.81;100.00
11878;BME280;5998;42.676;23.268;2022-08-27T01:32:26;94413.69;;;18.80;100.00
11878;BME280;5998;42.676;23.268;2022-08-27T01:34:54;94412.19;;;18.76;100.00
11878;BME280;5998;42.676;23.268;2022-08-27T01:37:22;94408.69;;;18.72;100.00
11878;BME280;5998;42.676;23.268;2022-08-27T01:39:50;94415.34;;;18.67;100.00
11878;BME280;5998;42.676;23.268;2022-08-27T01:42:22;94411.84;;;18.67;100.00
11878;BME280;5998;42.676;23.268;2022-08-27T01:44:52;94407.25;;;18.57;100.00
11878;BME280;5998;42.676;23.268;2022-08-27T01:47:21;94411.16;;;18.56;100.00
11878;BME280;5998;42.676;23.268;2022-08-27T01:49:48;94420.91;;;18.53;100.00
11878;BME280;5998;42.676;23.268;2022-08-27T01:52:18;94424.81;;;18.49;100.00
11878;BME280;5998;42.676;23.268;2022-08-27T01:54:45;94428.75;;;18.37;100.00
11878;BME280;5998;42.676;23.268;2022-08-27T01:57:13;94427.25;;;18.29;100.00
11878;BME280;5998;42.676;23.268;2022-08-27T01:59:42;94422.97;;;18.28;100.00
11878;BME280;5998;42.676;23.268;2022-08-27T02:02:10;94422.53;;;18.33;100.00
11878;BME280;5998;42.676;23.268;2022-08-27T02:04:38;94425.28;;;18.29;100.00
11878;BME280;5998;42.676;23.268;2022-08-27T02:07:06;94425.25;;;18.33;100.00
11878;BME280;5998;42.676;23.268;2022-08-27T02:09:32;94420.22;;;18.32;100.00
11878;BME280;5998;42.676;23.268;2022-08-27T02:11:59;94427.63;;;18.24;100.00
11878;BME280;5998;42.676;23.268;2022-08-27T02:14:27;94420.28;;;18.17;100.00
11878;BME280;5998;42.676;23.268;2022-08-27T02:16:56;94421.38;;;18.31;100.00
11878;BME280;5998;42.676;23.268;2022-08-27T02:19:22;94430.34;;;18.35;100.00
11878;BME280;5998;42.676;23.268;2022-08-27T02:21:49;94426.00;;;18.41;100.00
11878;BME280;5998;42.676;23.268;2022-08-27T02:24:16;94429.94;;;18.33;100.00
11878;BME280;5998;42.676;23.268;2022-08-27T02:26:43;94421.44;;;18.20;100.00
11878;BME280;5998;42.676;23.268;2022-08-27T02:29:12;94421.47;;;18.13;100.00
11878;BME280;5998;42.676;23.268;2022-08-27T02:31:39;94426.59;;;18.04;100.00
11878;BME280;5998;42.676;23.268;2022-08-27T02:34:07;94428.94;;;17.98;100.00
11878;BME280;5998;42.676;23.268;2022-08-27T02:36:35;94435.56;;;18.01;100.00
11878;BME280;5998;42.676;23.268;2022-08-27T02:39:03;94439.06;;;17.94;100.00
11878;BME280;5998;42.676;23.268;2022-08-27T02:41:30;94446.09;;;17.88;100.00
11878;BME280;5998;42.676;23.268;2022-08-27T02:43:57;94449.63;;;17.82;100.00
11878;BME280;5998;42.676;23.268;2022-08-27T02:46:23;94451.56;;;17.78;100.00
11878;BME280;5998;42.676;23.268;2022-08-27T02:48:51;94455.03;;;17.92;100.00
11878;BME280;5998;42.676;23.268;2022-08-27T02:51:19;94451.91;;;17.94;100.00
11878;BME280;5998;42.676;23.268;2022-08-27T02:53:46;94459.34;;;17.90;100.00
11878;BME280;5998;42.676;23.268;2022-08-27T02:56:13;94450.41;;;17.82;100.00
11878;BME280;5998;42.676;23.268;2022-08-27T02:58:39;94451.16;;;17.83;100.00
11878;BME280;5998;42.676;23.268;2022-08-27T03:01:06;94449.63;;;17.82;100.00
11878;BME280;5998;42.676;23.268;2022-08-27T03:03:33;94455.03;;;17.89;100.00
11878;BME280;5998;42.676;23.268;2022-08-27T03:06:00;94455.03;;;17.92;100.00
11878;BME280;5998;42.676;23.268;2022-08-27T03:08:28;94458.13;;;17.98;100.00
11878;BME280;5998;42.676;23.268;2022-08-27T03:10:56;94458.53;;;17.93;100.00
11878;BME280;5998;42.676;23.268;2022-08-27T03:13:23;94452.34;;;17.85;100.00
11878;BME280;5998;42.676;23.268;2022-08-27T03:15:51;94446.53;;;17.76;100.00
11878;BME280;5998;42.676;23.268;2022-08-27T03:18:18;94454.31;;;17.71;100.00
11878;BME280;5998;42.676;23.268;2022-08-27T03:20:45;94455.50;;;17.69;100.00
11878;BME280;5998;42.676;23.268;2022-08-27T03:23:14;94462.50;;;17.74;100.00
11878;BME280;5998;42.676;23.268;2022-08-27T03:25:45;94462.09;;;17.72;100.00
11878;BME280;5998;42.676;23.268;2022-08-27T03:28:15;94452.75;;;17.69;100.00
11878;BME280;5998;42.676;23.268;2022-08-27T03:30:42;94460.53;;;17.78;100.00
11878;BME280;5998;42.676;23.268;2022-08-27T03:33:10;94457.06;;;17.71;100.00
11878;BME280;5998;42.676;23.268;2022-08-27T03:35:37;94455.50;;;17.55;100.00
11878;BME280;5998;42.676;23.268;2022-08-27T03:38:04;94473.00;;;17.58;100.00
11878;BME280;5998;42.676;23.268;2022-08-27T03:40:31;94475.34;;;17.66;100.00
11878;BME280;5998;42.676;23.268;2022-08-27T03:42:59;94476.13;;;17.28;100.00
11878;BME280;5998;42.676;23.268;2022-08-27T03:45:26;94471.06;;;17.34;100.00
11878;BME280;5998;42.676;23.268;2022-08-27T03:47:52;94476.91;;;17.32;100.00
11878;BME280;5998;42.676;23.268;2022-08-27T03:50:19;94483.53;;;17.31;100.00
11878;BME280;5998;42.676;23.268;2022-08-27T03:52:46;94480.81;;;17.35;100.00
11878;BME280;5998;42.676;23.268;2022-08-27T03:55:13;94475.38;;;17.28;100.00
11878;BME280;5998;42.676;23.268;2022-08-27T03:57:40;94482.75;;;17.24;100.00
11878;BME280;5998;42.676;23.268;2022-08-27T04:00:10;94462.16;;;17.08;100.00
11878;BME280;5998;42.676;23.268;2022-08-27T04:02:37;94487.03;;;17.28;100.00
11878;BME280;5998;42.676;23.268;2022-08-27T04:05:04;94487.41;;;17.37;100.00
11878;BME280;5998;42.676;23.268;2022-08-27T04:07:31;94487.81;;;17.36;100.00
11878;BME280;5998;42.676;23.268;2022-08-27T04:09:58;94492.06;;;17.40;100.00
11878;BME280;5998;42.676;23.268;2022-08-27T04:12:25;94497.13;;;17.49;100.00
11878;BME280;5998;42.676;23.268;2022-08-27T04:14:51;94494.03;;;17.57;100.00
11878;BME280;5998;42.676;23.268;2022-08-27T04:17:20;94495.97;;;17.60;100.00
11878;BME280;5998;42.676;23.268;2022-08-27T04:19:46;94500.25;;;17.65;100.00
11878;BME280;5998;42.676;23.268;2022-08-27T04:22:13;94497.91;;;17.63;100.00
11878;BME280;5998;42.676;23.268;2022-08-27T04:24:40;94495.97;;;17.71;100.00
11878;BME280;5998;42.676;23.268;2022-08-27T04:27:07;94487.41;;;17.62;100.00
11878;BME280;5998;42.676;23.268;2022-08-27T04:29:35;94501.38;;;17.85;100.00
11878;BME280;5998;42.676;23.268;2022-08-27T04:32:03;94501.31;;;18.03;100.00
11878;BME280;5998;42.676;23.268;2022-08-27T04:34:32;94500.91;;;18.08;100.00
11878;BME280;5998;42.676;23.268;2022-08-27T04:36:58;94505.16;;;18.16;100.00
11878;BME280;5998;42.676;23.268;2022-08-27T04:39:26;94504.78;;;18.17;100.00
11878;BME280;5998;42.676;23.268;2022-08-27T04:41:55;94502.38;;;18.30;100.00
11878;BME280;5998;42.676;23.268;2022-08-27T04:44:25;94493.78;;;18.39;100.00
11878;BME280;5998;42.676;23.268;2022-08-27T04:46:54;94509.25;;;18.63;100.00
11878;BME280;5998;42.676;23.268;2022-08-27T04:49:22;94475.75;;;18.62;100.00
11878;BME280;5998;42.676;23.268;2022-08-27T04:51:51;94491.94;;;18.91;100.00
11878;BME280;5998;42.676;23.268;2022-08-27T04:54:17;94499.69;;;19.03;100.00
11878;BME280;5998;42.676;23.268;2022-08-27T04:56:45;94493.66;;;19.25;100.00
11878;BME280;5998;42.676;23.268;2022-08-27T04:59:11;94498.63;;;19.37;100.00
11878;BME280;5998;42.676;23.268;2022-08-27T05:01:39;94502.06;;;19.49;100.00
11878;BME280;5998;42.676;23.268;2022-08-27T05:04:07;94505.47;;;19.60;100.00
11878;BME280;5998;42.676;23.268;2022-08-27T05:06:36;94503.31;;;19.81;100.00
11878;BME280;5998;42.676;23.268;2022-08-27T05:09:04;94498.81;;;20.01;100.00
11878;BME280;5998;42.676;23.268;2022-08-27T05:11:31;94496.41;;;20.07;100.00
11878;BME280;5998;42.676;23.268;2022-08-27T05:14:01;94502.09;;;20.27;100.00
11878;BME280;5998;42.676;23.268;2022-08-27T05:16:29;94502.53;;;20.18;100.00
11878;BME280;5998;42.676;23.268;2022-08-27T05:18:57;94506.78;;;20.56;100.00
11878;BME280;5998;42.676;23.268;2022-08-27T05:21:26;94501.03;;;20.78;100.00
11878;BME280;5998;42.676;23.268;2022-08-27T05:23:54;94495.56;;;20.78;100.00
11878;BME280;5998;42.676;23.268;2022-08-27T05:26:23;94487.13;;;21.22;100.00
11878;BME280;5998;42.676;23.268;2022-08-27T05:28:50;94505.22;;;21.62;100.00
11878;BME280;5998;42.676;23.268;2022-08-27T05:31:18;94506.25;;;21.95;100.00
11878;BME280;5998;42.676;23.268;2022-08-27T05:33:46;94504.38;;;22.12;100.00
11878;BME280;5998;42.676;23.268;2022-08-27T05:36:15;94508.69;;;21.90;100.00
11878;BME280;5998;42.676;23.268;2022-08-27T05:38:42;94509.00;;;21.95;100.00
11878;BME280;5998;42.676;23.268;2022-08-27T05:41:11;94495.59;;;21.77;100.00
11878;BME280;5998;42.676;23.268;2022-08-27T05:43:40;94504.34;;;21.92;100.00
11878;BME280;5998;42.676;23.268;2022-08-27T05:46:10;94502.38;;;21.93;100.00
11878;BME280;5998;42.676;23.268;2022-08-27T05:48:38;94499.22;;;21.94;100.00
11878;BME280;5998;42.676;23.268;2022-08-27T05:51:07;94492.13;;;21.97;100.00
11878;BME280;5998;42.676;23.268;2022-08-27T05:53:35;94507.13;;;22.90;100.00
11878;BME280;5998;42.676;23.268;2022-08-27T05:56:02;94516.44;;;23.13;100.00
11878;BME280;5998;42.676;23.268;2022-08-27T05:58:29;94513.00;;;23.09;100.00
11878;BME280;5998;42.676;23.268;2022-08-27T06:01:14;94518.66;;;23.02;100.00
11878;BME280;5998;42.676;23.268;2022-08-27T06:03:42;94513.69;;;23.13;100.00
11878;BME280;5998;42.676;23.268;2022-08-27T06:06:11;94512.34;;;23.21;100.00
11878;BME280;5998;42.676;23.268;2022-08-27T06:08:38;94516.41;;;23.81;100.00
11878;BME280;5998;42.676;23.268;2022-08-27T06:11:06;94522.16;;;23.86;100.00
11878;BME280;5998;42.676;23.268;2022-08-27T06:13:34;94513.06;;;23.73;100.00
11878;BME280;5998;42.676;23.268;2022-08-27T06:16:02;94517.44;;;23.87;100.00
11878;BME280;5998;42.676;23.268;2022-08-27T06:18:31;94521.09;;;23.96;100.00
11878;BME280;5998;42.676;23.268;2022-08-27T06:20:58;94522.16;;;24.31;100.00
11878;BME280;5998;42.676;23.268;2022-08-27T06:23:25;94513.09;;;24.47;100.00
11878;BME280;5998;42.676;23.268;2022-08-27T06:25:53;94510.84;;;24.71;100.00
11878;BME280;5998;42.676;23.268;2022-08-27T06:28:19;94520.63;;;25.13;100.00
11878;BME280;5998;42.676;23.268;2022-08-27T06:30:47;94519.88;;;25.12;100.00
11878;BME280;5998;42.676;23.268;2022-08-27T06:33:14;94526.81;;;25.17;100.00
11878;BME280;5998;42.676;23.268;2022-08-27T06:35:42;94517.44;;;25.02;100.00
11878;BME280;5998;42.676;23.268;2022-08-27T06:38:09;94522.34;;;24.82;100.00
11878;BME280;5998;42.676;23.268;2022-08-27T06:40:39;94521.09;;;25.62;100.00
11878;BME280;5998;42.676;23.268;2022-08-27T06:43:06;94515.22;;;25.72;100.00
11878;BME280;5998;42.676;23.268;2022-08-27T06:45:36;94523.16;;;25.83;100.00
11878;BME280;5998;42.676;23.268;2022-08-27T06:48:03;94512.53;;;25.94;97.90
11878;BME280;5998;42.676;23.268;2022-08-27T06:50:36;94518.47;;;26.05;96.33
11878;BME280;5998;42.676;23.268;2022-08-27T06:53:04;94510.44;;;25.86;96.79
11878;BME280;5998;42.676;23.268;2022-08-27T06:55:31;94512.81;;;25.62;97.74
11878;BME280;5998;42.676;23.268;2022-08-27T06:57:58;94509.16;;;25.77;100.00
11878;BME280;5998;42.676;23.268;2022-08-27T07:00:25;94508.38;;;25.90;100.00
11878;BME280;5998;42.676;23.268;2022-08-27T07:02:52;94511.91;;;26.24;100.00
11878;BME280;5998;42.676;23.268;2022-08-27T07:05:19;94519.69;;;26.38;96.36
11878;BME280;5998;42.676;23.268;2022-08-27T07:07:45;94509.69;;;26.54;100.00
11878;BME280;5998;42.676;23.268;2022-08-27T07:10:13;94506.16;;;26.75;97.97
11878;BME280;5998;42.676;23.268;2022-08-27T07:12:40;94507.88;;;26.60;96.56
11878;BME280;5998;42.676;23.268;2022-08-27T07:15:08;94512.91;;;26.74;95.89
11878;BME280;5998;42.676;23.268;2022-08-27T07:17:35;94507.00;;;26.63;94.65
11878;BME280;5998;42.676;23.268;2022-08-27T07:20:03;94507.66;;;26.67;96.73
11878;BME280;5998;42.676;23.268;2022-08-27T07:22:30;94505.50;;;26.49;95.40
11878;BME280;5998;42.676;23.268;2022-08-27T07:24:57;94507.06;;;26.93;100.00
11878;BME280;5998;42.676;23.268;2022-08-27T07:27:25;94517.13;;;27.09;98.53
11878;BME280;5998;42.676;23.268;2022-08-27T07:29:51;94506.09;;;26.87;100.00
11878;BME280;5998;42.676;23.268;2022-08-27T07:32:18;94510.63;;;27.25;98.56
11878;BME280;5998;42.676;23.268;2022-08-27T07:34:45;94521.69;;;27.34;89.70
11878;BME280;5998;42.676;23.268;2022-08-27T07:37:12;94519.53;;;27.29;93.28
11878;BME280;5998;42.676;23.268;2022-08-27T07:39:39;94522.00;;;27.58;91.96
11878;BME280;5998;42.676;23.268;2022-08-27T07:42:06;94527.16;;;27.46;88.88
11878;BME280;5998;42.676;23.268;2022-08-27T07:45:03;94526.00;;;27.66;87.84
11878;BME280;5998;42.676;23.268;2022-08-27T07:47:30;94522.72;;;27.58;90.81
11878;BME280;5998;42.676;23.268;2022-08-27T07:49:57;94522.59;;;27.62;88.41
11878;BME280;5998;42.676;23.268;2022-08-27T07:52:24;94529.44;;;27.97;88.21
11878;BME280;5998;42.676;23.268;2022-08-27T07:54:52;94521.22;;;28.15;88.23
11878;BME280;5998;42.676;23.268;2022-08-27T07:57:18;94528.00;;;28.23;86.49
11878;BME280;5998;42.676;23.268;2022-08-27T07:59:45;94527.06;;;28.17;84.50
11878;BME280;5998;42.676;23.268;2022-08-27T08:02:14;94526.75;;;28.06;88.32
11878;BME280;5998;42.676;23.268;2022-08-27T08:04:40;94522.47;;;28.41;85.37
11878;BME280;5998;42.676;23.268;2022-08-27T08:07:07;94524.16;;;28.21;81.98
11878;BME280;5998;42.676;23.268;2022-08-27T08:09:34;94520.94;;;28.58;85.05
11878;BME280;5998;42.676;23.268;2022-08-27T08:12:00;94523.88;;;28.73;83.49
11878;BME280;5998;42.676;23.268;2022-08-27T08:14:28;94521.06;;;28.91;81.20
11878;BME280;5998;42.676;23.268;2022-08-27T08:16:58;94505.22;;;28.83;79.80
11878;BME280;5998;42.676;23.268;2022-08-27T08:19:27;94511.69;;;28.52;79.55
11878;BME280;5998;42.676;23.268;2022-08-27T08:21:54;94513.84;;;28.39;82.90
11878;BME280;5998;42.676;23.268;2022-08-27T08:24:21;94518.78;;;28.53;80.66
11878;BME280;5998;42.676;23.268;2022-08-27T08:26:49;94513.25;;;28.81;80.62
11878;BME280;5998;42.676;23.268;2022-08-27T08:29:16;94510.59;;;28.86;81.07
11878;BME280;5998;42.676;23.268;2022-08-27T08:31:47;94509.34;;;29.05;77.03
11878;BME280;5998;42.676;23.268;2022-08-27T08:34:13;94505.72;;;29.32;78.51
11878;BME280;5998;42.676;23.268;2022-08-27T08:36:42;94503.34;;;29.49;75.03
11878;BME280;5998;42.676;23.268;2022-08-27T08:39:09;94500.09;;;29.50;69.10
11878;BME280;5998;42.676;23.268;2022-08-27T08:41:39;94514.19;;;29.79;70.61
11878;BME280;5998;42.676;23.268;2022-08-27T08:44:13;94504.34;;;29.69;66.79
11878;BME280;5998;42.676;23.268;2022-08-27T08:46:47;94504.41;;;29.51;67.96
11878;BME280;5998;42.676;23.268;2022-08-27T08:49:26;94503.56;;;29.69;73.71
11878;BME280;5998;42.676;23.268;2022-08-27T08:52:08;94504.81;;;30.01;72.50
11878;BME280;5998;42.676;23.268;2022-08-27T08:54:37;94494.97;;;30.14;73.37
11878;BME280;5998;42.676;23.268;2022-08-27T08:57:07;94505.50;;;30.34;69.46
11878;BME280;5998;42.676;23.268;2022-08-27T08:59:44;94488.59;;;30.47;65.01
11878;BME280;5998;42.676;23.268;2022-08-27T09:02:14;94502.91;;;30.69;67.53
11878;BME280;5998;42.676;23.268;2022-08-27T09:04:41;94490.34;;;30.59;56.55
11878;BME280;5998;42.676;23.268;2022-08-27T09:07:15;94487.59;;;30.73;59.05
11878;BME280;5998;42.676;23.268;2022-08-27T09:09:46;94501.03;;;30.89;62.57
11878;BME280;5998;42.676;23.268;2022-08-27T09:12:16;94501.00;;;30.75;57.02
11878;BME280;5998;42.676;23.268;2022-08-27T09:14:49;94497.91;;;30.58;56.41
11878;BME280;5998;42.676;23.268;2022-08-27T09:17:17;94495.25;;;30.78;55.98
11878;BME280;5998;42.676;23.268;2022-08-27T09:19:44;94495.94;;;30.73;51.98
11878;BME280;5998;42.676;23.268;2022-08-27T09:22:17;94489.84;;;30.99;55.43
11878;BME280;5998;42.676;23.268;2022-08-27T09:24:54;94490.13;;;31.01;51.69
11878;BME280;5998;42.676;23.268;2022-08-27T09:27:26;94493.28;;;31.23;50.28
11878;BME280;5998;42.676;23.268;2022-08-27T09:29:55;94488.84;;;30.87;52.46
11878;BME280;5998;42.676;23.268;2022-08-27T09:32:24;94489.50;;;30.67;52.40
11878;BME280;5998;42.676;23.268;2022-08-27T09:34:51;94488.63;;;30.61;48.32
11878;BME280;5998;42.676;23.268;2022-08-27T09:37:24;94484.63;;;30.91;51.24
11878;BME280;5998;42.676;23.268;2022-08-27T09:39:58;94492.50;;;31.22;48.92
11878;BME280;5998;42.676;23.268;2022-08-27T09:42:31;94484.44;;;31.10;45.14
11878;BME280;5998;42.676;23.268;2022-08-27T09:45:00;94486.81;;;30.73;45.19
11878;BME280;5998;42.676;23.268;2022-08-27T09:47:27;94483.66;;;30.65;47.67
11878;BME280;5998;42.676;23.268;2022-08-27T09:50:05;94480.31;;;30.90;44.05
11878;BME280;5998;42.676;23.268;2022-08-27T09:52:37;94483.69;;;30.94;43.65
11878;BME280;5998;42.676;23.268;2022-08-27T09:55:11;94481.09;;;31.06;45.73
11878;BME280;5998;42.676;23.268;2022-08-27T09:57:40;94477.94;;;31.13;43.18
11878;BME280;5998;42.676;23.268;2022-08-27T10:00:13;94486.00;;;31.11;40.81
11878;BME280;5998;42.676;23.268;2022-08-27T10:02:49;94471.53;;;31.07;41.71
11878;BME280;5998;42.676;23.268;2022-08-27T10:05:24;94474.47;;;31.32;41.42
11878;BME280;5998;42.676;23.268;2022-08-27T10:07:56;94478.78;;;31.04;42.69
11878;BME280;5998;42.676;23.268;2022-08-27T10:10:34;94479.06;;;30.91;42.96
11878;BME280;5998;42.676;23.268;2022-08-27T10:13:05;94472.16;;;30.72;45.08
11878;BME280;5998;42.676;23.268;2022-08-27T10:15:37;94476.38;;;30.82;41.55
11878;BME280;5998;42.676;23.268;2022-08-27T10:18:09;94459.78;;;30.88;41.25
11878;BME280;5998;42.676;23.268;2022-08-27T10:20:41;94478.59;;;31.22;43.66
11878;BME280;5998;42.676;23.268;2022-08-27T10:23:19;94473.25;;;31.68;40.38
11878;BME280;5998;42.676;23.268;2022-08-27T10:25:55;94474.88;;;31.95;39.33
11878;BME280;5998;42.676;23.268;2022-08-27T10:28:41;94466.84;;;31.62;38.64
11878;BME280;5998;42.676;23.268;2022-08-27T10:31:18;94460.88;;;31.20;39.05
11878;BME280;5998;42.676;23.268;2022-08-27T10:33:56;94468.91;;;31.32;39.54
11878;BME280;5998;42.676;23.268;2022-08-27T10:36:35;94467.06;;;31.59;41.40
11878;BME280;5998;42.676;23.268;2022-08-27T10:39:14;94473.16;;;31.77;38.10
11878;BME280;5998;42.676;23.268;2022-08-27T10:41:51;94479.44;;;31.58;37.84
11878;BME280;5998;42.676;23.268;2022-08-27T10:44:28;94475.09;;;31.57;40.10
11878;BME280;5998;42.676;23.268;2022-08-27T10:47:08;94475.22;;;31.82;39.49
11878;BME280;5998;42.676;23.268;2022-08-27T10:49:42;94473.41;;;32.34;39.60
11878;BME280;5998;42.676;23.268;2022-08-27T10:52:16;94470.28;;;31.72;35.63
11878;BME280;5998;42.676;23.268;2022-08-27T10:54:52;94466.78;;;31.27;38.22
11878;BME280;5998;42.676;23.268;2022-08-27T10:57:27;94467.59;;;30.99;39.60
11878;BME280;5998;42.676;23.268;2022-08-27T11:00:05;94474.84;;;30.81;38.44
11878;BME280;5998;42.676;23.268;2022-08-27T11:02:38;94461.41;;;30.80;38.37
11878;BME280;5998;42.676;23.268;2022-08-27T11:05:15;94437.16;;;30.51;38.07
11878;BME280;5998;42.676;23.268;2022-08-27T11:07:46;94474.50;;;31.18;40.03
11878;BME280;5998;42.676;23.268;2022-08-27T11:10:20;94459.13;;;31.08;37.24
11878;BME280;5998;42.676;23.268;2022-08-27T11:12:52;94461.00;;;31.45;37.41
11878;BME280;5998;42.676;23.268;2022-08-27T11:15:24;94465.72;;;31.54;36.55
11878;BME280;5998;42.676;23.268;2022-08-27T11:17:56;94458.91;;;31.55;36.70
11878;BME280;5998;42.676;23.268;2022-08-27T11:20:27;94460.22;;;31.60;37.71
11878;BME280;5998;42.676;23.268;2022-08-27T11:22:59;94458.31;;;31.51;33.17
11878;BME280;5998;42.676;23.268;2022-08-27T11:25:42;94451.59;;;31.43;35.90
11878;BME280;5998;42.676;23.268;2022-08-27T11:28:11;94466.69;;;31.86;35.24
11878;BME280;5998;42.676;23.268;2022-08-27T11:30:58;94429.03;;;32.10;36.31
11878;BME280;5998;42.676;23.268;2022-08-27T11:33:32;94450.59;;;31.95;35.50
11878;BME280;5998;42.676;23.268;2022-08-27T11:39:06;94440.88;;;32.26;35.74
11878;BME280;5998;42.676;23.268;2022-08-27T11:41:53;94444.22;;;32.30;36.03
11878;BME280;5998;42.676;23.268;2022-08-27T11:44:26;94428.41;;;32.21;36.38
11878;BME280;5998;42.676;23.268;2022-08-27T11:46:56;94440.66;;;32.09;34.00
11878;BME280;5998;42.676;23.268;2022-08-27T11:49:41;94438.00;;;32.00;35.55
11878;BME280;5998;42.676;23.268;2022-08-27T11:52:09;94443.25;;;32.33;37.41
11878;BME280;5998;42.676;23.268;2022-08-27T11:54:45;94440.97;;;32.77;34.87
11878;BME280;5998;42.676;23.268;2022-08-27T11:57:26;94440.66;;;33.01;32.41
11878;BME280;5998;42.676;23.268;2022-08-27T11:59:53;94440.31;;;33.19;34.14
11878;BME280;5998;42.676;23.268;2022-08-27T12:02:22;94433.50;;;33.20;33.30
11878;BME280;5998;42.676;23.268;2022-08-27T12:04:51;94432.91;;;32.85;31.75
11878;BME280;5998;42.676;23.268;2022-08-27T12:07:33;94416.78;;;32.68;32.19
11878;BME280;5998;42.676;23.268;2022-08-27T12:10:20;94414.09;;;33.05;36.06
11878;BME280;5998;42.676;23.268;2022-08-27T12:13:03;94418.13;;;33.36;33.42
11878;BME280;5998;42.676;23.268;2022-08-27T12:15:45;94408.66;;;33.59;32.21
11878;BME280;5998;42.676;23.268;2022-08-27T12:18:39;94413.19;;;33.19;32.42
11878;BME280;5998;42.676;23.268;2022-08-27T12:21:16;94414.56;;;33.04;32.90
11878;BME280;5998;42.676;23.268;2022-08-27T12:23:53;94405.69;;;33.37;32.60
11878;BME280;5998;42.676;23.268;2022-08-27T12:26:29;94397.28;;;33.68;32.88
11878;BME280;5998;42.676;23.268;2022-08-27T12:29:21;94404.41;;;33.69;31.47
11878;BME280;5998;42.676;23.268;2022-08-27T12:31:51;94403.59;;;33.63;32.12
11878;BME280;5998;42.676;23.268;2022-08-27T12:34:22;94400.97;;;33.48;32.22
11878;BME280;5998;42.676;23.268;2022-08-27T12:36:52;94401.72;;;32.86;31.16
11878;BME280;5998;42.676;23.268;2022-08-27T12:39:24;94402.03;;;32.62;31.80
11878;BME280;5998;42.676;23.268;2022-08-27T12:41:52;94404.50;;;32.55;32.36
11878;BME280;5998;42.676;23.268;2022-08-27T12:44:26;94396.59;;;32.53;33.83
11878;BME280;5998;42.676;23.268;2022-08-27T12:46:57;94402.34;;;32.70;32.38
11878;BME280;5998;42.676;23.268;2022-08-27T12:49:30;94405.22;;;32.55;31.19
11878;BME280;5998;42.676;23.268;2022-08-27T12:52:03;94407.75;;;32.79;31.44
11878;BME280;5998;42.676;23.268;2022-08-27T12:54:42;94397.81;;;33.04;32.04
11878;BME280;5998;42.676;23.268;2022-08-27T12:57:16;94402.53;;;32.92;31.57
11878;BME280;5998;42.676;23.268;2022-08-27T13:00:03;94368.53;;;33.19;31.44
11878;BME280;5998;42.676;23.268;2022-08-27T13:02:59;94387.22;;;33.45;31.92
11878;BME280;5998;42.676;23.268;2022-08-27T13:05:36;94386.22;;;33.90;32.01
11878;BME280;5998;42.676;23.268;2022-08-27T13:08:03;94389.88;;;34.07;31.37
11878;BME280;5998;42.676;23.268;2022-08-27T13:10:31;94391.19;;;34.23;29.58
11878;BME280;5998;42.676;23.268;2022-08-27T13:13:06;94391.75;;;34.32;29.91